Time;durP1;ratioP1;P1;durP2;ratioP2;P2;SDS_P1;SDS_P2;PMS_P1;PMS_P2;Temp;Humidity;BMP_temperature;BMP_pressure;BME280_temperature;BME280_humidity;BME280_pressure;Samples;Min_cycle;Max_cycle;Signal;HPM_P1;HPM_P2
2022/09/28 04:01:24;;;;;;;1.10;1.00;;;5.30;96.30;;;;;;5537574;23;20495;-77
2022/09/28 04:03:56;;;;;;;3.37;0.97;;;5.30;96.30;;;;;;4995833;28;20432;-76
2022/09/28 04:06:23;;;;;;;2.70;0.87;;;5.30;96.30;;;;;;5013795;28;20169;-76
2022/09/28 04:08:48;;;;;;;1.30;1.03;;;5.30;96.30;;;;;;5013745;28;20396;-77
2022/09/28 04:11:14;;;;;;;2.20;1.50;;;5.20;96.30;;;;;;4996079;28;20443;-76
2022/09/28 04:13:39;;;;;;;1.30;1.10;;;5.20;96.30;;;;;;5014996;28;20188;-78
2022/09/28 04:16:05;;;;;;;2.30;1.37;;;5.20;96.30;;;;;;5007823;28;20184;-78
2022/09/28 04:18:32;;;;;;;1.40;0.90;;;5.10;96.30;;;;;;5013576;28;20205;-79
2022/09/28 04:21:05;;;;;;;3.53;2.40;;;4.90;96.30;;;;;;5012978;28;20291;-79
2022/09/28 04:23:31;;;;;;;1.20;0.90;;;4.90;96.30;;;;;;4995171;28;20419;-79
2022/09/28 04:25:57;;;;;;;2.03;1.80;;;4.80;96.30;;;;;;4995529;28;20420;-79
2022/09/28 04:31:13;;;;;;;20.73;13.80;;;4.70;96.30;;;;;;5011038;28;20211;-79
2022/09/28 04:33:39;;;;;;;4.80;3.80;;;4.70;96.30;;;;;;5012203;28;20446;-79
2022/09/28 04:36:04;;;;;;;19.50;11.03;;;4.70;96.30;;;;;;5012186;28;20432;-79
2022/09/28 04:38:31;;;;;;;21.03;11.67;;;4.70;96.30;;;;;;5013255;28;20260;-77
2022/09/28 04:40:56;;;;;;;18.03;12.13;;;4.80;96.30;;;;;;5013256;28;20239;-76
2022/09/28 04:43:22;;;;;;;11.00;6.23;;;4.80;96.30;;;;;;4994869;28;20423;-76
2022/09/28 04:45:47;;;;;;;2.93;2.20;;;4.80;96.30;;;;;;5012822;28;20196;-76
2022/09/28 04:48:13;;;;;;;2.33;1.80;;;4.90;96.30;;;;;;5012433;28;20177;-77
2022/09/28 04:50:38;;;;;;;3.37;2.40;;;4.90;96.30;;;;;;5016917;28;20223;-78
2022/09/28 04:53:04;;;;;;;2.37;1.70;;;4.90;96.30;;;;;;5012610;28;20200;-76
2022/09/28 04:55:31;;;;;;;2.07;1.80;;;5.00;96.30;;;;;;5013128;28;20184;-77
2022/09/28 04:58:01;;;;;;;2.43;1.80;;;5.00;96.30;;;;;;4994852;28;20246;-77
2022/09/28 05:00:28;;;;;;;5.00;1.57;;;5.00;96.30;;;;;;5012511;28;20944;-76
2022/09/28 05:02:53;;;;;;;3.27;1.80;;;5.00;96.30;;;;;;5011864;28;20419;-76
2022/09/28 05:05:19;;;;;;;1.43;1.17;;;5.10;96.30;;;;;;5012284;28;20412;-78
2022/09/28 05:07:45;;;;;;;1.47;1.20;;;5.20;96.30;;;;;;5012570;28;20165;-79
2022/09/28 05:10:11;;;;;;;2.00;1.80;;;5.20;96.30;;;;;;5016893;28;20489;-76
2022/09/28 05:12:36;;;;;;;2.73;2.20;;;5.20;96.30;;;;;;5020417;28;20260;-76
2022/09/28 05:15:02;;;;;;;2.40;1.70;;;5.20;96.30;;;;;;5029130;28;20237;-76
2022/09/28 05:17:28;;;;;;;1.80;1.70;;;5.20;96.30;;;;;;5032960;28;20169;-76
2022/09/28 05:19:53;;;;;;;1.50;1.33;;;5.20;96.30;;;;;;4997684;28;20190;-76
2022/09/28 05:22:18;;;;;;;3.60;1.23;;;5.20;96.30;;;;;;5013363;28;20204;-75
2022/09/28 05:24:45;;;;;;;3.87;0.97;;;5.20;96.30;;;;;;5014338;28;20181;-76
2022/09/28 05:27:10;;;;;;;2.50;1.50;;;5.20;96.30;;;;;;4997040;28;20184;-77
2022/09/28 05:29:36;;;;;;;2.40;1.20;;;5.20;96.30;;;;;;4980509;28;20435;-79
2022/09/28 05:32:02;;;;;;;2.03;1.00;;;5.10;96.30;;;;;;4998002;28;20205;-77
2022/09/28 05:34:28;;;;;;;1.27;1.10;;;5.20;96.30;;;;;;5008138;28;20267;-77
2022/09/28 05:36:53;;;;;;;2.10;1.77;;;5.20;96.30;;;;;;5009893;28;21734;-77
2022/09/28 05:39:19;;;;;;;1.60;1.43;;;5.20;96.30;;;;;;5007237;28;20176;-77
2022/09/28 05:41:45;;;;;;;2.73;1.17;;;5.20;96.30;;;;;;5007805;28;20700;-77
2022/09/28 05:44:10;;;;;;;4.53;1.40;;;5.20;96.30;;;;;;5007920;28;20185;-77
2022/09/28 05:46:36;;;;;;;1.90;1.43;;;5.20;96.30;;;;;;5007475;28;20240;-79
2022/09/28 05:49:02;;;;;;;3.30;1.27;;;5.20;96.30;;;;;;5009280;28;20551;-77
2022/09/28 05:51:28;;;;;;;3.20;1.77;;;5.20;96.30;;;;;;5009787;28;20220;-77
2022/09/28 05:53:55;;;;;;;2.80;1.77;;;5.20;96.30;;;;;;5009022;28;20420;-77
2022/09/28 05:56:20;;;;;;;2.57;1.83;;;5.30;96.30;;;;;;5009543;28;20193;-76
2022/09/28 05:58:46;;;;;;;3.17;2.10;;;5.40;96.30;;;;;;5009982;28;20462;-77
2022/09/28 06:01:11;;;;;;;5.40;1.80;;;5.40;96.30;;;;;;5008554;28;20270;-78
2022/09/28 06:03:36;;;;;;;4.20;2.70;;;5.50;96.30;;;;;;5009867;28;20177;-78
2022/09/28 06:06:02;;;;;;;5.20;3.43;;;5.50;96.30;;;;;;5004360;28;20582;-77
2022/09/28 06:08:29;;;;;;;7.77;4.23;;;5.50;96.30;;;;;;5009679;28;20188;-77
2022/09/28 06:10:58;;;;;;;7.10;4.17;;;5.60;96.30;;;;;;4991842;28;20225;-78
2022/09/28 06:13:24;;;;;;;4.00;2.30;;;5.60;96.30;;;;;;5008608;28;20438;-77
2022/09/28 06:15:50;;;;;;;1.87;1.50;;;5.70;96.30;;;;;;5008211;28;20491;-76
2022/09/28 06:18:15;;;;;;;5.67;1.50;;;5.80;96.30;;;;;;5012904;28;20231;-77
2022/09/28 06:20:41;;;;;;;2.27;1.63;;;5.80;96.30;;;;;;5014086;28;20208;-78
2022/09/28 06:23:08;;;;;;;3.73;1.80;;;5.90;96.30;;;;;;5012893;28;20656;-78
2022/09/28 06:25:34;;;;;;;2.10;1.80;;;5.90;96.30;;;;;;5011052;28;20458;-79
2022/09/28 06:28:05;;;;;;;2.07;1.87;;;6.00;96.30;;;;;;5015014;28;20427;-78
2022/09/28 06:30:33;;;;;;;3.17;1.70;;;6.00;96.30;;;;;;5005726;28;20205;-78
2022/09/28 06:33:00;;;;;;;2.60;1.80;;;6.00;96.30;;;;;;4992932;28;20450;-77
2022/09/28 06:35:30;;;;;;;2.30;1.53;;;6.10;96.30;;;;;;4990077;28;20795;-77
2022/09/28 06:37:57;;;;;;;2.63;1.30;;;6.10;96.30;;;;;;4997782;28;20612;-76
2022/09/28 06:40:23;;;;;;;2.67;1.80;;;6.10;96.30;;;;;;5014375;28;20978;-76
2022/09/28 06:43:08;;;;;;;10.80;1.83;;;6.20;96.30;;;;;;5011444;28;20938;-76
2022/09/28 06:45:34;;;;;;;9.33;1.67;;;6.20;96.30;;;;;;5001687;28;20919;-81
2022/09/28 06:48:00;;;;;;;1.80;1.60;;;6.20;96.30;;;;;;5001799;28;20426;-78
2022/09/28 06:50:29;;;;;;;3.27;1.90;;;6.20;96.30;;;;;;5020044;28;20671;-78
2022/09/28 06:52:55;;;;;;;3.67;1.57;;;6.30;96.30;;;;;;4996832;28;20439;-76
2022/09/28 06:55:21;;;;;;;2.17;1.33;;;6.30;96.30;;;;;;5012060;28;20416;-78
2022/09/28 06:57:55;;;;;;;1.80;1.30;;;6.40;96.30;;;;;;4993039;28;20440;-78
2022/09/28 07:00:21;;;;;;;1.80;1.37;;;6.50;96.30;;;;;;4993835;28;20268;-78
2022/09/28 07:02:46;;;;;;;2.57;1.73;;;6.50;96.30;;;;;;4992254;28;20515;-78
2022/09/28 07:05:12;;;;;;;3.23;1.87;;;6.40;96.30;;;;;;4993645;28;20227;-78
2022/09/28 07:07:39;;;;;;;2.17;1.40;;;6.40;96.30;;;;;;5009012;28;20585;-79
2022/09/28 07:10:05;;;;;;;1.83;1.30;;;6.50;96.30;;;;;;5013485;28;20903;-79
2022/09/28 07:12:33;;;;;;;2.00;1.20;;;6.40;96.30;;;;;;5010527;28;20430;-77
2022/09/28 07:14:59;;;;;;;1.00;0.80;;;6.40;96.30;;;;;;4993165;28;20412;-76
2022/09/28 07:17:24;;;;;;;1.70;0.90;;;6.30;96.30;;;;;;5010002;28;21159;-76
2022/09/28 07:19:51;;;;;;;4.60;1.83;;;6.30;96.30;;;;;;5011022;28;20173;-72
2022/09/28 07:22:18;;;;;;;2.60;1.10;;;6.30;96.30;;;;;;5010274;28;20205;-73
2022/09/28 07:24:43;;;;;;;2.40;1.40;;;6.20;96.30;;;;;;4992362;28;20408;-74
2022/09/28 07:27:09;;;;;;;1.80;1.20;;;6.20;96.30;;;;;;4995506;28;20458;-74
2022/09/28 07:29:35;;;;;;;1.70;0.90;;;6.20;96.30;;;;;;5009061;28;20599;-74
2022/09/28 07:32:00;;;;;;;2.27;1.10;;;6.20;96.30;;;;;;4992839;28;20204;-74
2022/09/28 07:34:26;;;;;;;1.93;1.30;;;6.10;96.30;;;;;;5006263;28;21309;-75
2022/09/28 07:36:56;;;;;;;1.70;1.33;;;6.20;96.30;;;;;;4996937;28;20243;-75
2022/09/28 07:39:21;;;;;;;7.30;2.83;;;6.20;96.30;;;;;;5009619;28;20223;-75
2022/09/28 07:41:47;;;;;;;1.60;0.90;;;6.20;96.30;;;;;;5013106;28;20471;-74
2022/09/28 07:44:14;;;;;;;2.03;0.93;;;6.20;96.30;;;;;;5003846;28;20177;-75
2022/09/28 07:46:39;;;;;;;2.50;0.90;;;6.20;96.30;;;;;;4990197;28;21054;-74
2022/09/28 07:49:05;;;;;;;3.83;1.10;;;6.20;96.30;;;;;;5037083;28;20420;-74
2022/09/28 07:51:31;;;;;;;1.10;1.00;;;6.30;96.30;;;;;;5041325;28;20207;-75
2022/09/28 07:53:57;;;;;;;4.43;1.40;;;6.40;96.30;;;;;;5038458;28;20196;-74
2022/09/28 07:56:24;;;;;;;2.33;1.40;;;6.40;96.30;;;;;;5026061;28;20969;-74
2022/09/28 07:58:49;;;;;;;2.27;1.10;;;6.40;96.30;;;;;;5005442;28;20176;-75
2022/09/28 08:01:15;;;;;;;2.80;1.30;;;6.40;96.30;;;;;;5010177;28;20476;-75
2022/09/28 08:03:46;;;;;;;1.60;1.50;;;6.40;96.30;;;;;;5012034;28;20177;-75
2022/09/28 08:06:14;;;;;;;1.60;0.90;;;6.30;96.30;;;;;;5013055;28;20165;-75
2022/09/28 08:08:43;;;;;;;1.30;1.20;;;6.30;96.30;;;;;;5009527;28;20491;-75
2022/09/28 08:11:15;;;;;;;0.90;0.80;;;6.30;96.30;;;;;;5008924;28;20443;-76
2022/09/28 08:13:42;;;;;;;6.30;1.40;;;6.30;96.30;;;;;;5009700;28;20419;-76
2022/09/28 08:16:08;;;;;;;2.27;1.10;;;6.30;96.30;;;;;;5009038;28;20412;-77
2022/09/28 08:18:34;;;;;;;1.97;1.00;;;6.40;96.30;;;;;;5010116;28;20498;-76
2022/09/28 08:23:46;;;;;;;6.33;3.30;;;6.50;96.30;;;;;;5008286;28;20400;-76
2022/09/28 08:26:11;;;;;;;2.50;1.13;;;6.50;96.30;;;;;;5009102;28;20416;-77
2022/09/28 08:28:38;;;;;;;1.30;0.90;;;6.50;96.30;;;;;;5009206;28;20721;-78
2022/09/28 08:31:06;;;;;;;1.50;1.17;;;6.60;96.30;;;;;;5008765;28;20744;-77
2022/09/28 08:33:32;;;;;;;1.03;0.70;;;6.60;96.30;;;;;;4992364;28;20438;-77
2022/09/28 08:36:00;;;;;;;1.70;0.80;;;6.60;96.30;;;;;;4990548;28;20424;-77
2022/09/28 08:38:27;;;;;;;2.00;1.30;;;6.80;96.30;;;;;;5008897;28;20435;-78
2022/09/28 08:40:57;;;;;;;1.30;0.80;;;6.90;96.30;;;;;;5008177;28;20502;-77
2022/09/28 08:43:51;;;;;;;1.10;0.90;;;6.90;96.30;;;;;;5006995;28;20412;-77
2022/09/28 08:46:20;;;;;;;1.97;1.17;;;6.90;96.30;;;;;;4997379;28;20404;-78
2022/09/28 08:49:07;;;;;;;1.60;1.10;;;6.90;96.30;;;;;;5005475;28;20443;-77
2022/09/28 08:51:44;;;;;;;1.70;1.00;;;6.90;96.30;;;;;;5007134;28;20821;-76
2022/09/28 08:54:37;;;;;;;1.77;0.90;;;6.90;96.30;;;;;;5009558;28;20495;-77
2022/09/28 08:57:11;;;;;;;1.70;1.07;;;7.10;96.30;;;;;;5006174;28;20408;-77
2022/09/28 08:59:48;;;;;;;1.57;1.40;;;7.30;96.30;;;;;;4986889;28;20482;-78
2022/09/28 09:02:24;;;;;;;2.13;0.90;;;7.40;96.30;;;;;;5006365;28;20474;-77
2022/09/28 09:04:51;;;;;;;1.53;1.17;;;7.60;96.30;;;;;;5009555;28;20527;-77
2022/09/28 09:07:27;;;;;;;1.87;1.00;;;7.70;96.30;;;;;;5009889;28;20912;-77
2022/09/28 09:10:02;;;;;;;2.13;0.90;;;7.70;96.30;;;;;;5006498;28;20540;-76
2022/09/28 09:12:57;;;;;;;1.97;1.50;;;7.70;96.30;;;;;;5008477;28;20997;-76
2022/09/28 09:15:26;;;;;;;1.27;1.13;;;7.80;96.30;;;;;;4967349;28;20501;-76
2022/09/28 09:18:21;;;;;;;1.47;0.80;;;8.00;96.30;;;;;;5008387;28;20499;-77
2022/09/28 09:20:55;;;;;;;1.10;0.83;;;8.40;96.30;;;;;;5007813;28;20878;-77
2022/09/28 09:23:48;;;;;;;2.70;0.77;;;9.40;96.30;;;;;;5008403;28;20411;-77
2022/09/28 09:26:19;;;;;;;0.80;0.50;;;9.20;96.30;;;;;;4991657;28;20427;-77
2022/09/28 09:29:01;;;;;;;0.80;0.50;;;9.20;96.30;;;;;;5008541;28;20412;-77
2022/09/28 09:31:50;;;;;;;0.83;0.53;;;9.20;96.30;;;;;;5008601;28;20451;-78
2022/09/28 09:34:31;;;;;;;0.80;0.50;;;9.20;96.30;;;;;;4980068;28;20490;-78
2022/09/28 09:37:18;;;;;;;0.80;0.53;;;9.10;96.30;;;;;;4990923;28;20427;-77
2022/09/28 09:40:23;;;;;;;4.63;0.97;;;8.90;96.30;;;;;;5006368;28;20423;-77
2022/09/28 09:43:23;;;;;;;1.97;0.70;;;8.90;96.30;;;;;;5008994;28;20426;-77
2022/09/28 09:46:01;;;;;;;1.47;1.10;;;8.80;96.30;;;;;;5007660;28;20400;-77
2022/09/28 09:48:51;;;;;;;1.20;0.70;;;8.90;96.30;;;;;;5008049;28;20430;-77
2022/09/28 09:51:56;;;;;;;0.80;0.50;;;9.20;96.30;;;;;;4989031;28;20436;-78
2022/09/28 09:54:50;;;;;;;1.60;1.00;;;9.30;96.30;;;;;;4983514;28;20424;-78
2022/09/28 09:57:41;;;;;;;4.73;1.13;;;9.50;96.30;;;;;;5006590;28;21196;-77
2022/09/28 10:00:12;;;;;;;1.53;0.80;;;9.70;96.30;;;;;;5001916;28;20962;-78
2022/09/28 10:02:38;;;;;;;2.07;0.80;;;9.90;96.30;;;;;;4998033;28;20436;-77
2022/09/28 10:05:27;;;;;;;3.53;0.60;;;9.90;96.30;;;;;;5011741;28;20431;-78
2022/09/28 10:08:07;;;;;;;0.80;0.60;;;10.40;96.30;;;;;;5011713;28;20985;-77
2022/09/28 10:10:38;;;;;;;0.90;0.60;;;11.20;96.30;;;;;;4992731;28;20439;-77
2022/09/28 10:13:04;;;;;;;1.50;0.80;;;11.70;96.30;;;;;;5009113;28;20498;-78
2022/09/28 10:15:34;;;;;;;1.00;0.70;;;11.50;96.30;;;;;;5011700;28;20503;-78
2022/09/28 10:18:05;;;;;;;1.20;0.73;;;11.20;96.30;;;;;;5017750;28;20588;-76
2022/09/28 12:16:33;;;;;;;0.90;0.60;;;10.50;96.30;;;;;;5723849;23;20558;-76
2022/09/28 12:19:23;;;;;;;1.00;0.60;;;10.50;96.30;;;;;;4975122;28;20471;-75
2022/09/28 12:21:53;;;;;;;1.00;0.60;;;10.60;96.30;;;;;;4992859;28;20472;-74
2022/09/28 12:24:41;;;;;;;0.90;0.60;;;10.70;96.30;;;;;;5012397;28;20400;-75
2022/09/28 12:27:09;;;;;;;1.00;0.70;;;10.60;96.30;;;;;;5012379;28;20396;-75
2022/09/28 12:29:46;;;;;;;1.53;0.60;;;10.90;96.30;;;;;;5011035;28;20529;-75
2022/09/28 12:32:45;;;;;;;0.93;0.60;;;10.90;96.30;;;;;;5011499;28;20537;-75
2022/09/28 12:35:15;;;;;;;1.00;0.60;;;10.40;96.30;;;;;;5012233;28;20871;-75
2022/09/28 12:38:01;;;;;;;2.63;0.80;;;10.10;96.30;;;;;;5012227;28;20419;-74
2022/09/28 12:40:36;;;;;;;1.17;0.70;;;9.90;96.30;;;;;;5012060;28;20871;-76
2022/09/28 12:43:25;;;;;;;4.30;0.80;;;10.00;96.30;;;;;;5012050;28;20982;-76
2022/09/28 12:46:15;;;;;;;0.97;0.70;;;9.90;96.30;;;;;;5012040;28;20404;-75
2022/09/28 12:49:11;;;;;;;1.37;0.60;;;9.80;96.30;;;;;;4992462;28;20749;-74
2022/09/28 12:51:59;;;;;;;1.10;0.63;;;9.90;96.30;;;;;;4992347;28;20428;-74
2022/09/28 12:55:08;;;;;;;0.90;0.60;;;9.80;96.30;;;;;;4992446;28;20508;-75
2022/09/28 12:57:57;;;;;;;1.67;0.70;;;9.40;96.30;;;;;;4971078;28;20436;-75
2022/09/28 13:00:28;;;;;;;0.83;0.60;;;9.10;96.30;;;;;;4974698;28;20419;-75
2022/09/28 13:03:12;;;;;;;2.17;0.80;;;9.30;96.30;;;;;;4992150;28;20398;-73
2022/09/28 13:05:58;;;;;;;1.57;0.70;;;9.50;96.30;;;;;;5002026;28;20500;-75
2022/09/28 13:09:00;;;;;;;1.20;0.73;;;9.30;96.30;;;;;;4994127;28;20408;-75
2022/09/28 13:12:09;;;;;;;1.00;0.70;;;9.20;96.30;;;;;;5011730;28;20449;-75
2022/09/28 13:14:52;;;;;;;4.73;1.00;;;9.00;96.30;;;;;;4973404;28;20512;-75
2022/09/28 13:17:43;;;;;;;1.83;0.80;;;8.80;96.30;;;;;;5011474;28;21016;-75
2022/09/28 13:20:19;;;;;;;0.90;0.60;;;8.50;96.30;;;;;;4981299;28;20428;-74
2022/09/28 13:23:22;;;;;;;6.80;0.80;;;8.40;96.30;;;;;;5011449;28;20392;-75
2022/09/28 13:25:54;;;;;;;1.10;0.73;;;8.40;96.30;;;;;;5012160;28;20796;-74
2022/09/28 13:28:21;;;;;;;1.67;1.20;;;8.40;96.30;;;;;;4998140;28;20427;-75
2022/09/28 13:30:49;;;;;;;1.77;0.80;;;8.70;96.30;;;;;;5015585;28;20423;-76
2022/09/28 13:33:35;;;;;;;1.30;0.90;;;9.00;96.30;;;;;;4997972;28;20927;-75
2022/09/28 13:36:20;;;;;;;4.40;0.90;;;9.80;96.30;;;;;;5015575;28;20399;-75
2022/09/28 13:38:48;;;;;;;1.50;0.73;;;10.70;96.30;;;;;;5014217;28;20400;-75
2022/09/28 13:41:17;;;;;;;1.00;0.87;;;11.20;96.30;;;;;;5015132;28;20447;-76
2022/09/28 13:44:19;;;;;;;1.20;0.83;;;11.00;96.30;;;;;;4997867;28;20419;-75
2022/09/28 13:47:00;;;;;;;1.90;1.00;;;10.80;96.30;;;;;;5015641;28;20383;-76
2022/09/28 13:49:44;;;;;;;1.10;0.80;;;10.40;96.30;;;;;;4997521;28;20813;-74
2022/09/28 13:52:43;;;;;;;1.43;0.90;;;10.00;96.30;;;;;;4997648;28;20975;-77
2022/09/28 13:55:16;;;;;;;1.40;1.00;;;9.90;96.30;;;;;;5015171;28;20503;-75
2022/09/28 13:57:51;;;;;;;1.57;1.00;;;9.80;96.30;;;;;;5015314;28;20467;-74
2022/09/28 14:00:23;;;;;;;1.20;0.90;;;9.80;96.30;;;;;;5015022;28;20399;-74
2022/09/28 14:03:00;;;;;;;1.10;0.80;;;9.90;96.30;;;;;;5014872;28;20389;-76
2022/09/28 14:05:45;;;;;;;1.20;1.00;;;10.00;96.30;;;;;;5015048;28;20392;-76
2022/09/28 14:08:38;;;;;;;1.47;1.00;;;9.80;96.30;;;;;;5014886;28;20457;-75
2022/09/28 14:11:33;;;;;;;1.30;0.90;;;9.80;96.30;;;;;;5014839;28;20442;-75
2022/09/28 14:14:07;;;;;;;1.13;1.03;;;9.80;96.30;;;;;;5014995;28;20403;-77
2022/09/28 14:16:35;;;;;;;3.87;1.70;;;10.00;96.30;;;;;;5013106;28;20942;-76
2022/09/28 14:19:06;;;;;;;1.63;1.17;;;10.30;96.30;;;;;;5007859;28;20927;-75
2022/09/28 14:21:31;;;;;;;1.20;1.10;;;10.20;96.30;;;;;;5012005;28;20525;-76
2022/09/28 14:24:12;;;;;;;1.70;1.60;;;10.10;96.30;;;;;;5004243;28;20412;-75
2022/09/28 14:27:02;;;;;;;2.10;1.60;;;9.90;96.30;;;;;;5012070;28;20172;-75
2022/09/28 14:29:30;;;;;;;1.83;1.20;;;9.70;96.30;;;;;;5001438;28;21820;-76
2022/09/28 14:32:02;;;;;;;1.63;1.20;;;9.60;96.30;;;;;;4995180;28;20447;-75
2022/09/28 14:34:39;;;;;;;2.43;1.30;;;9.40;96.30;;;;;;4995927;28;20421;-76
2022/09/28 14:43:37;;;;;;;1.70;1.07;;;11.30;96.30;;;;;;5014817;28;20415;-75
2022/09/28 14:46:15;;;;;;;1.93;1.10;;;11.70;96.30;;;;;;4997121;28;20514;-75
2022/09/28 14:48:54;;;;;;;1.80;1.07;;;11.30;96.30;;;;;;5014595;28;20486;-75
2022/09/28 14:51:25;;;;;;;2.27;1.07;;;10.80;96.30;;;;;;5015059;28;20427;-75
2022/09/28 14:54:11;;;;;;;1.53;1.00;;;10.70;96.30;;;;;;5015652;28;20962;-75
2022/09/28 14:56:52;;;;;;;1.63;1.23;;;10.20;96.30;;;;;;5013852;28;20769;-75
2022/09/28 14:59:29;;;;;;;1.13;1.00;;;9.80;96.30;;;;;;5008404;28;21124;-75
2022/09/28 15:02:05;;;;;;;1.13;0.93;;;9.70;96.30;;;;;;5009448;28;20471;-76
2022/09/28 15:04:37;;;;;;;1.10;0.90;;;9.70;96.30;;;;;;5012203;28;20921;-76
2022/09/28 15:07:04;;;;;;;1.50;1.07;;;9.60;96.30;;;;;;5010183;28;20438;-76
2022/09/28 15:09:37;;;;;;;2.20;1.20;;;9.20;96.30;;;;;;5012063;28;20816;-77
2022/09/28 15:12:12;;;;;;;5.53;1.10;;;9.00;96.30;;;;;;4996514;28;20444;-77
2022/09/28 15:15:03;;;;;;;1.10;0.90;;;9.00;96.30;;;;;;5014388;28;20421;-78
2022/09/28 15:17:35;;;;;;;4.20;1.10;;;9.30;96.30;;;;;;4993914;28;20460;-76
2022/09/28 15:20:20;;;;;;;1.43;0.90;;;9.50;96.30;;;;;;4993362;28;20789;-78
2022/09/28 15:22:48;;;;;;;2.83;1.10;;;9.70;96.30;;;;;;4996985;28;20455;-78
2022/09/28 15:25:18;;;;;;;3.20;0.90;;;9.90;96.30;;;;;;4998770;28;20482;-78
2022/09/28 15:27:47;;;;;;;1.10;0.70;;;10.10;96.30;;;;;;5014387;28;20466;-75
2022/09/28 15:30:33;;;;;;;1.30;0.70;;;10.10;96.30;;;;;;5014295;28;20837;-77
2022/09/28 15:36:01;;;;;;;1.10;0.70;;;9.70;96.30;;;;;;5014798;28;20430;-76
2022/09/28 15:38:27;;;;;;;1.40;0.80;;;9.50;96.30;;;;;;5013981;28;20478;-77
2022/09/28 15:40:53;;;;;;;1.27;0.80;;;9.30;96.30;;;;;;5005236;28;20828;-75
2022/09/28 15:43:25;;;;;;;1.20;0.83;;;9.00;96.30;;;;;;5010760;28;20986;-75
2022/09/28 15:46:12;;;;;;;1.27;0.90;;;8.90;96.30;;;;;;5013869;28;20487;-75
2022/09/28 15:48:49;;;;;;;0.90;0.70;;;8.80;96.30;;;;;;4988158;28;20429;-75
2022/09/28 15:51:15;;;;;;;4.43;0.90;;;9.00;96.30;;;;;;4993447;28;20436;-76
2022/09/28 15:53:54;;;;;;;2.23;1.00;;;9.20;96.30;;;;;;4994010;28;20781;-77
2022/09/28 15:56:20;;;;;;;1.50;1.17;;;9.50;96.30;;;;;;4995162;28;20622;-75
2022/09/28 15:59:07;;;;;;;1.40;1.00;;;9.50;96.30;;;;;;5013511;28;20447;-76
2022/09/28 16:01:38;;;;;;;2.27;1.20;;;9.50;96.30;;;;;;5013396;28;20201;-75
2022/09/28 16:04:37;;;;;;;3.83;1.27;;;9.30;96.30;;;;;;5013561;28;20416;-75
2022/09/28 16:07:08;;;;;;;1.70;1.10;;;8.90;96.30;;;;;;5013449;28;20795;-74
2022/09/28 16:10:10;;;;;;;1.50;1.10;;;8.70;96.30;;;;;;5013290;28;20416;-75
2022/09/28 16:12:35;;;;;;;2.80;1.30;;;8.60;96.30;;;;;;5013328;28;20435;-77
2022/09/28 16:15:17;;;;;;;2.17;1.00;;;8.40;96.30;;;;;;4999082;28;20453;-78
2022/09/28 16:17:47;;;;;;;1.67;1.47;;;8.20;96.30;;;;;;4976232;28;20228;-75
2022/09/28 16:20:31;;;;;;;2.80;1.40;;;8.10;96.30;;;;;;4993624;28;20951;-75
2022/09/28 16:23:18;;;;;;;1.93;1.27;;;8.10;96.30;;;;;;4993484;28;20506;-75
2022/09/28 16:26:12;;;;;;;7.50;1.50;;;8.10;96.30;;;;;;4979458;28;20423;-79
2022/09/28 16:28:38;;;;;;;1.97;1.40;;;8.10;96.30;;;;;;4966753;28;20429;-77
2022/09/28 16:31:27;;;;;;;2.37;1.30;;;8.10;96.30;;;;;;4993397;28;20504;-75
2022/09/28 16:34:07;;;;;;;3.00;1.70;;;8.10;96.30;;;;;;4993421;28;20162;-75
2022/09/28 16:36:44;;;;;;;2.50;1.97;;;8.10;96.30;;;;;;4993348;28;20455;-75
2022/09/28 16:39:11;;;;;;;2.13;1.50;;;8.10;96.30;;;;;;4984091;28;20523;-74
2022/09/28 16:41:41;;;;;;;2.40;1.40;;;8.10;96.30;;;;;;5011374;28;20474;-75
2022/09/28 16:44:27;;;;;;;2.10;1.77;;;8.00;96.30;;;;;;4982050;28;20520;-75
2022/09/28 16:46:54;;;;;;;8.63;3.47;;;8.10;96.30;;;;;;4993011;28;20431;-75
2022/09/28 16:49:22;;;;;;;1.80;1.40;;;8.00;96.30;;;;;;4992939;28;20389;-75
2022/09/28 16:51:48;;;;;;;2.53;1.80;;;8.00;96.30;;;;;;4991208;28;20448;-75
2022/09/28 16:57:04;;;;;;;6.30;2.20;;;7.90;96.30;;;;;;4993249;28;20653;-76
2022/09/28 16:59:30;;;;;;;2.50;1.80;;;7.80;96.30;;;;;;4992658;28;20413;-76
2022/09/28 17:01:56;;;;;;;2.50;1.90;;;7.80;96.30;;;;;;4991909;28;20829;-76
2022/09/28 17:04:25;;;;;;;2.23;2.03;;;7.70;96.30;;;;;;4992926;28;20405;-76
2022/09/28 17:06:53;;;;;;;2.37;2.10;;;7.60;96.30;;;;;;4992937;28;20645;-76
2022/09/28 17:09:19;;;;;;;5.37;2.23;;;7.50;96.30;;;;;;4992595;28;20897;-76
2022/09/28 17:11:45;;;;;;;6.60;3.87;;;7.40;96.30;;;;;;4991914;28;20508;-76
2022/09/28 17:14:11;;;;;;;4.13;3.40;;;7.30;96.30;;;;;;4975511;28;20507;-76
2022/09/28 17:16:38;;;;;;;3.77;3.07;;;7.30;96.30;;;;;;4975178;28;20269;-76
2022/09/28 17:19:17;;;;;;;4.03;3.47;;;7.20;96.30;;;;;;5001605;28;20204;-75
2022/09/28 17:21:43;;;;;;;1.87;1.70;;;7.00;96.30;;;;;;5009128;28;20459;-75
2022/09/28 17:24:08;;;;;;;3.00;2.07;;;6.90;96.30;;;;;;5011677;28;20412;-77
2022/09/28 17:26:34;;;;;;;1.80;1.70;;;6.70;96.30;;;;;;5011791;28;20187;-77
2022/09/28 17:29:00;;;;;;;3.50;2.70;;;6.60;96.30;;;;;;4994169;28;20172;-77
2022/09/28 17:31:27;;;;;;;11.73;6.60;;;6.60;96.30;;;;;;5008140;28;20857;-77
2022/09/28 17:33:53;;;;;;;38.07;28.50;;;6.60;96.30;;;;;;4974717;28;20181;-76
2022/09/28 17:36:20;;;;;;;78.57;45.53;;;6.50;96.30;;;;;;4992292;28;20436;-77
2022/09/28 17:38:46;;;;;;;33.80;20.90;;;6.50;96.30;;;;;;4991920;28;20427;-78
2022/09/28 17:41:16;;;;;;;5.90;5.07;;;6.50;96.30;;;;;;5011469;28;20464;-77
2022/09/28 17:43:42;;;;;;;4.33;3.30;;;6.60;96.30;;;;;;5011720;28;20404;-76
2022/09/28 17:46:31;;;;;;;2.43;1.90;;;6.60;96.30;;;;;;5011887;28;20424;-78
2022/09/28 17:48:58;;;;;;;3.80;3.40;;;6.70;96.30;;;;;;4990715;28;20424;-77
2022/09/28 17:51:29;;;;;;;2.63;2.00;;;6.80;96.30;;;;;;5000492;28;20961;-77
2022/09/28 17:53:55;;;;;;;2.27;1.80;;;6.90;96.30;;;;;;5002708;28;20455;-77
2022/09/28 17:56:22;;;;;;;4.83;2.37;;;7.00;96.30;;;;;;4991591;28;20412;-78
2022/09/28 17:58:47;;;;;;;2.33;1.40;;;7.00;96.30;;;;;;4991882;28;20446;-78
2022/09/28 18:01:13;;;;;;;4.23;3.67;;;7.10;96.30;;;;;;5008249;28;20517;-78
2022/09/28 18:03:38;;;;;;;4.40;2.50;;;7.10;96.30;;;;;;5015287;28;20173;-77
2022/09/28 18:06:06;;;;;;;3.50;1.50;;;7.20;96.30;;;;;;5020121;28;20177;-77
2022/09/28 18:08:33;;;;;;;3.27;1.70;;;7.20;96.30;;;;;;5001848;28;20235;-78
2022/09/28 18:11:00;;;;;;;2.03;1.63;;;7.20;96.30;;;;;;5019643;28;20955;-78
2022/09/28 18:13:26;;;;;;;5.87;1.50;;;7.20;96.30;;;;;;5005455;28;20423;-78
2022/09/28 18:15:54;;;;;;;2.20;1.70;;;7.20;96.30;;;;;;5024936;28;20424;-76
2022/09/28 18:18:21;;;;;;;2.70;1.80;;;7.30;96.30;;;;;;5000757;28;20833;-79
2022/09/28 18:25:49;;;;;;;4.97;1.97;;;7.30;96.30;;;;;;5012582;28;20510;-77
2022/09/28 18:28:15;;;;;;;2.17;1.97;;;7.30;96.30;;;;;;5013896;28;20916;-77
2022/09/28 18:30:43;;;;;;;2.17;1.63;;;7.30;96.30;;;;;;5015117;28;20185;-77
2022/09/28 18:33:09;;;;;;;4.90;1.60;;;7.30;96.30;;;;;;5015078;28;20204;-77
2022/09/28 18:35:35;;;;;;;2.00;1.80;;;7.30;96.30;;;;;;5015095;28;20868;-77
2022/09/28 18:38:04;;;;;;;2.67;1.60;;;7.30;96.30;;;;;;5014843;28;20475;-77
2022/09/28 18:40:30;;;;;;;2.23;1.80;;;7.20;96.30;;;;;;5013631;28;20534;-76
2022/09/28 18:42:55;;;;;;;3.43;1.90;;;7.20;96.30;;;;;;5013413;28;20522;-77
2022/09/28 18:45:21;;;;;;;2.80;2.13;;;7.20;96.30;;;;;;5015051;28;20181;-77
2022/09/28 18:47:46;;;;;;;2.00;1.80;;;7.20;96.30;;;;;;5013464;28;20646;-77
2022/09/28 18:50:14;;;;;;;2.10;1.90;;;7.20;96.30;;;;;;5014455;28;20572;-77
2022/09/28 18:52:42;;;;;;;2.73;2.37;;;7.10;96.30;;;;;;5014576;28;20164;-77
2022/09/28 18:55:08;;;;;;;6.23;5.03;;;7.10;96.30;;;;;;5014676;28;20412;-76
2022/09/28 18:57:34;;;;;;;5.27;4.07;;;7.10;96.30;;;;;;5014626;28;20415;-76
2022/09/28 19:00:02;;;;;;;3.83;2.90;;;7.00;96.30;;;;;;5013324;28;20431;-76
2022/09/28 19:02:27;;;;;;;9.47;6.40;;;7.00;96.30;;;;;;5014298;28;20958;-76
2022/09/28 19:04:53;;;;;;;3.17;2.87;;;6.90;96.30;;;;;;5014579;28;20436;-76
2022/09/28 19:07:18;;;;;;;21.00;15.17;;;6.80;96.30;;;;;;5013271;28;20584;-76
2022/09/28 19:09:44;;;;;;;3.77;2.57;;;6.80;96.30;;;;;;5014428;28;20717;-76
2022/09/28 19:12:10;;;;;;;3.00;2.67;;;6.70;96.30;;;;;;5014322;28;20273;-76
2022/09/28 19:14:36;;;;;;;2.67;2.03;;;6.60;96.30;;;;;;5014577;28;20211;-74
2022/09/28 19:17:03;;;;;;;2.93;2.37;;;6.50;96.30;;;;;;5013268;28;20927;-74
2022/09/28 19:19:28;;;;;;;3.30;2.20;;;6.40;96.30;;;;;;5014501;28;20179;-75
2022/09/28 19:21:54;;;;;;;4.57;3.50;;;6.30;96.30;;;;;;5014291;28;20455;-73
2022/09/28 19:24:20;;;;;;;3.60;2.20;;;6.30;96.30;;;;;;5003148;28;20719;-73
2022/09/28 19:26:46;;;;;;;101.50;71.70;;;6.30;96.30;;;;;;5013027;28;20181;-73
2022/09/28 19:29:13;;;;;;;72.80;47.60;;;6.30;96.30;;;;;;5014180;28;20408;-74
2022/09/28 19:31:39;;;;;;;47.73;30.87;;;6.30;96.30;;;;;;5014347;28;20439;-78
2022/09/28 19:34:04;;;;;;;6.00;5.40;;;6.30;96.30;;;;;;5003043;28;20494;-79
2022/09/28 19:36:30;;;;;;;4.13;1.70;;;6.40;96.30;;;;;;4994991;28;20963;-79
2022/09/28 19:39:01;;;;;;;2.80;1.77;;;6.40;96.30;;;;;;4993011;28;20181;-79
2022/09/28 19:41:48;;;;;;;1.90;1.80;;;6.30;96.30;;;;;;5009719;28;20478;-79